Delta Virtual Airport Information Service

Columbus John Glenn International Airport

ICAO: KCMH Country: United States
Latitude: 39.998 Longitude: -82.8918
Latest Arrival : SWA4034 (A) (KATL-KCMH) Latest Departure : DAC4921 (KCMH-KMSP)


WX CaptureLIVE
Data provided by noaa.gov | Fetched at 20:40:04

METAR : KCMH 250051Z 05009KT 10SM OVC036 08/03 A3015 RMK AO2 SLP214 T00780028 $

TAF : KCMH 242329Z 2500/2524 03004KT P6SM BKN035 OVC250 FM250400 04008KT P6SM SCT035 BKN250 FM251200 05009KT P6SM BKN100 FM251800 05007KT P6SM OVC040


Runway Data for KCMH
Data provided by openaviationdata.com

Runway ID Mag Var Hdg Length Elevation Surface ILS Freq ILS Id ILS Slope
10L -5 99° 7989 ft 815 ft Asphalt 109.1 ICBP 3
10R -5 99° 10236 ft 815 ft Asphalt 108.7 IAQI 3
28L -5 279° 10236 ft 815 ft Asphalt 108.7 ICMH 3
28R -5 279° 7989 ft 815 ft Asphalt 109.1 IONB 3

Columbus John Glenn International Airport, United States
Use only for reference purposes



Not for navigational purposes.